Time;durP1;ratioP1;P1;durP2;ratioP2;P2;SDS_P1;SDS_P2;PMS_P1;PMS_P2;Temp;Humidity;BMP_temperature;BMP_pressure;BME280_temperature;BME280_humidity;BME280_pressure;Samples;Min_cycle;Max_cycle;Signal;HPM_P1;HPM_P2
2022/03/10 00:00:47;;;;;;;17.60;11.82;;;3.60;99.90;;;;;;4993288;28;20415;-83
2022/03/10 00:03:14;;;;;;;19.00;12.18;;;3.50;99.90;;;;;;5009775;28;20435;-84
2022/03/10 00:05:39;;;;;;;18.40;12.00;;;3.50;99.90;;;;;;4992953;28;20038;-83
2022/03/10 00:08:05;;;;;;;21.85;12.75;;;3.40;99.90;;;;;;5009311;28;20053;-84
2022/03/10 00:10:30;;;;;;;22.42;13.35;;;3.30;99.90;;;;;;5009479;28;20042;-83
2022/03/10 00:12:56;;;;;;;22.55;13.30;;;3.20;99.90;;;;;;5009580;28;20073;-83
2022/03/10 00:15:23;;;;;;;22.33;13.25;;;3.20;99.90;;;;;;5009103;28;20038;-83
2022/03/10 00:17:50;;;;;;;22.13;13.68;;;3.10;99.90;;;;;;4993046;28;20582;-83
2022/03/10 00:20:15;;;;;;;19.13;13.10;;;3.00;99.90;;;;;;5009454;28;20080;-83
2022/03/10 00:22:50;;;;;;;21.70;12.27;;;3.00;99.90;;;;;;5009415;28;20078;-83
2022/03/10 00:25:16;;;;;;;23.77;13.10;;;3.00;99.90;;;;;;5009202;28;20038;-83
2022/03/10 00:27:42;;;;;;;22.90;13.30;;;3.00;99.90;;;;;;5009595;28;20072;-83
2022/03/10 00:30:09;;;;;;;18.73;12.63;;;2.80;99.90;;;;;;4991613;28;20049;-83
2022/03/10 00:32:50;;;;;;;22.40;13.40;;;2.70;99.90;;;;;;5009251;28;20045;-83
2022/03/10 00:35:24;;;;;;;25.10;13.55;;;2.70;99.90;;;;;;4992743;28;20053;-83
2022/03/10 00:37:49;;;;;;;20.00;12.60;;;2.70;99.90;;;;;;4992960;28;20048;-83
2022/03/10 00:40:16;;;;;;;20.33;13.23;;;2.70;99.90;;;;;;5009569;28;20392;-83
2022/03/10 00:42:43;;;;;;;22.65;13.25;;;2.70;99.90;;;;;;4993083;28;20045;-83
2022/03/10 00:45:10;;;;;;;18.40;12.07;;;2.60;99.90;;;;;;5012746;28;20037;-83
2022/03/10 00:47:35;;;;;;;21.48;13.05;;;2.60;99.90;;;;;;5012997;28;20052;-84
2022/03/10 00:50:03;;;;;;;20.95;13.25;;;2.50;99.90;;;;;;5013275;28;20045;-83
2022/03/10 00:52:28;;;;;;;25.02;14.60;;;2.50;99.90;;;;;;5013138;28;20496;-84
2022/03/10 00:54:54;;;;;;;25.58;15.10;;;2.50;99.90;;;;;;4996509;28;20060;-84
2022/03/10 00:57:25;;;;;;;27.92;16.05;;;2.30;99.90;;;;;;4996631;28;20040;-83
2022/03/10 00:59:50;;;;;;;25.20;14.93;;;2.30;99.90;;;;;;5013190;28;20403;-83
2022/03/10 01:02:16;;;;;;;24.13;15.00;;;2.30;99.90;;;;;;5012810;28;20124;-83
2022/03/10 01:04:43;;;;;;;22.25;13.88;;;2.20;99.90;;;;;;5012693;28;20042;-83
2022/03/10 01:07:09;;;;;;;20.98;13.90;;;2.20;99.90;;;;;;5012896;28;20495;-83
2022/03/10 01:09:35;;;;;;;20.48;13.05;;;2.10;99.90;;;;;;5012711;28;20539;-83
2022/03/10 01:12:00;;;;;;;20.88;13.30;;;2.00;99.90;;;;;;5012485;28;20042;-84
2022/03/10 01:14:26;;;;;;;21.15;13.20;;;2.00;99.90;;;;;;5012425;28;20042;-83
2022/03/10 01:16:51;;;;;;;20.23;12.30;;;2.00;99.90;;;;;;5012688;28;20552;-84
2022/03/10 01:19:17;;;;;;;20.58;11.88;;;2.00;99.90;;;;;;5012577;28;20156;-84
2022/03/10 01:21:42;;;;;;;18.88;12.27;;;2.00;99.90;;;;;;4996515;28;20052;-84
2022/03/10 01:24:08;;;;;;;19.05;12.27;;;2.10;99.90;;;;;;5012327;28;20041;-83
2022/03/10 01:26:33;;;;;;;17.40;11.77;;;2.10;99.90;;;;;;5011772;28;20156;-84
2022/03/10 01:28:59;;;;;;;19.27;11.63;;;2.10;99.90;;;;;;4994291;28;20049;-84
2022/03/10 01:31:25;;;;;;;16.92;11.15;;;2.10;99.90;;;;;;5010321;28;20045;-84
2022/03/10 01:33:50;;;;;;;18.52;11.38;;;2.30;99.90;;;;;;5010170;28;20052;-83
2022/03/10 01:36:16;;;;;;;18.45;10.80;;;2.30;99.90;;;;;;5010152;28;20158;-84
2022/03/10 01:38:42;;;;;;;16.48;11.48;;;2.30;99.90;;;;;;5010300;28;20045;-83
2022/03/10 01:41:08;;;;;;;18.00;11.10;;;2.30;99.90;;;;;;4994591;28;20442;-84
2022/03/10 01:43:54;;;;;;;17.88;11.63;;;2.30;99.90;;;;;;4995390;28;20087;-84
2022/03/10 01:46:19;;;;;;;19.33;11.77;;;2.30;99.90;;;;;;4995778;28;20050;-84
2022/03/10 01:48:45;;;;;;;20.95;11.23;;;2.50;99.90;;;;;;5011938;28;20057;-84
2022/03/10 01:51:11;;;;;;;18.35;11.10;;;2.50;99.90;;;;;;4995753;28;20512;-84
2022/03/10 01:53:37;;;;;;;19.80;10.98;;;2.50;99.90;;;;;;5011749;28;20045;-83
2022/03/10 01:56:03;;;;;;;18.75;11.13;;;2.60;99.90;;;;;;5010646;28;20409;-84
2022/03/10 01:58:29;;;;;;;18.58;11.45;;;2.60;99.90;;;;;;5012060;28;20042;-84
2022/03/10 02:00:55;;;;;;;17.58;11.43;;;2.50;99.90;;;;;;4995493;28;20050;-84
2022/03/10 02:03:21;;;;;;;19.48;12.05;;;2.50;99.90;;;;;;5012057;28;20391;-84
2022/03/10 02:05:47;;;;;;;19.50;12.55;;;2.40;99.90;;;;;;4995071;28;20037;-84
2022/03/10 02:10:58;;;;;;;16.50;11.40;;;2.30;99.90;;;;;;5011497;28;20530;-84
2022/03/10 02:13:23;;;;;;;17.88;11.75;;;2.10;99.90;;;;;;5011534;28;20069;-85
2022/03/10 02:18:33;;;;;;;20.17;12.02;;;2.10;99.90;;;;;;5011613;28;20499;-85
2022/03/10 02:20:58;;;;;;;17.13;11.45;;;1.70;99.90;;;;;;5011547;28;20045;-85
2022/03/10 02:23:24;;;;;;;19.17;11.88;;;1.70;99.90;;;;;;4995070;28;20052;-84
2022/03/10 02:25:49;;;;;;;19.02;12.13;;;1.60;99.90;;;;;;5011051;28;20038;-85
2022/03/10 02:28:15;;;;;;;17.70;12.20;;;1.60;99.90;;;;;;5011491;28;20077;-85
2022/03/10 02:30:41;;;;;;;20.42;11.40;;;1.40;99.90;;;;;;5011262;28;20045;-85
2022/03/10 02:33:06;;;;;;;17.80;11.55;;;1.40;99.90;;;;;;5011138;28;20041;-83
2022/03/10 02:35:32;;;;;;;19.17;11.85;;;1.30;99.90;;;;;;5010932;28;20107;-84
2022/03/10 02:37:57;;;;;;;20.13;11.68;;;1.30;99.90;;;;;;4994883;28;20042;-84
2022/03/10 02:40:24;;;;;;;20.85;11.95;;;1.30;99.90;;;;;;5011287;28;20073;-84
2022/03/10 02:42:50;;;;;;;19.45;11.65;;;1.30;99.90;;;;;;4994894;28;20042;-85
2022/03/10 02:45:15;;;;;;;19.33;12.20;;;1.30;99.90;;;;;;4994615;28;20124;-84
2022/03/10 02:47:41;;;;;;;20.42;12.27;;;1.30;99.90;;;;;;5010768;28;20049;-84
2022/03/10 02:50:07;;;;;;;26.02;11.98;;;1.30;99.90;;;;;;5010944;28;20072;-83
2022/03/10 02:52:37;;;;;;;20.25;12.75;;;1.30;99.90;;;;;;5010816;28;20500;-84
2022/03/10 02:55:08;;;;;;;20.10;12.77;;;1.30;99.90;;;;;;4994451;28;20049;-83
2022/03/10 02:57:34;;;;;;;21.80;11.90;;;1.40;99.90;;;;;;5010758;28;20504;-84
2022/03/10 03:00:00;;;;;;;17.13;12.07;;;1.30;99.90;;;;;;4994521;28;20389;-84
2022/03/10 03:02:26;;;;;;;19.50;12.67;;;1.30;99.90;;;;;;5010802;28;20399;-84
2022/03/10 03:04:52;;;;;;;18.83;12.00;;;1.30;99.90;;;;;;4994045;28;20132;-84
2022/03/10 03:07:18;;;;;;;19.10;13.17;;;1.20;99.90;;;;;;5010307;28;20515;-84
2022/03/10 03:09:43;;;;;;;19.47;12.43;;;1.10;99.90;;;;;;5010766;28;20042;-85
2022/03/10 03:12:09;;;;;;;19.60;12.33;;;1.10;99.90;;;;;;4994176;28;20042;-84
2022/03/10 03:14:34;;;;;;;19.93;12.23;;;1.10;99.90;;;;;;5010212;28;20038;-85
2022/03/10 03:17:00;;;;;;;16.40;11.60;;;0.90;99.90;;;;;;5010393;28;20042;-85
2022/03/10 03:19:26;;;;;;;20.43;13.13;;;0.80;99.90;;;;;;5010480;28;20038;-85
2022/03/10 03:21:52;;;;;;;21.73;12.63;;;0.80;99.90;;;;;;5010339;28;20099;-85
2022/03/10 03:24:19;;;;;;;18.67;12.40;;;0.80;99.90;;;;;;5010114;28;20071;-85
2022/03/10 03:26:44;;;;;;;22.93;12.93;;;0.80;99.90;;;;;;4994071;28;20045;-85
2022/03/10 03:29:10;;;;;;;20.73;12.30;;;0.80;99.90;;;;;;5010203;28;20405;-83
2022/03/10 03:31:37;;;;;;;19.97;11.63;;;0.90;99.90;;;;;;5010444;28;20044;-83
2022/03/10 03:34:09;;;;;;;21.40;12.47;;;0.80;99.90;;;;;;5010050;28;20038;-85
2022/03/10 03:36:39;;;;;;;19.40;12.27;;;0.80;99.90;;;;;;4993758;28;20042;-85
2022/03/10 03:39:05;;;;;;;20.13;12.00;;;0.80;99.90;;;;;;4993754;28;20061;-84
2022/03/10 03:41:31;;;;;;;20.10;13.07;;;0.90;99.90;;;;;;5009989;28;20033;-84
2022/03/10 03:43:56;;;;;;;19.77;12.53;;;0.80;99.90;;;;;;5009856;28;20061;-84
2022/03/10 03:46:22;;;;;;;21.10;12.33;;;0.80;99.90;;;;;;4993415;28;20063;-84
2022/03/10 03:48:47;;;;;;;20.83;13.17;;;0.80;99.90;;;;;;4993945;28;20046;-85
2022/03/10 03:51:13;;;;;;;19.30;12.90;;;0.80;99.90;;;;;;5009908;28;20046;-84
2022/03/10 03:53:38;;;;;;;18.80;11.83;;;0.80;99.90;;;;;;4993791;28;20060;-85
2022/03/10 03:56:04;;;;;;;19.43;12.30;;;0.80;99.90;;;;;;5009562;28;20045;-85
2022/03/10 03:58:29;;;;;;;18.20;11.67;;;0.90;99.90;;;;;;5010119;28;20069;-85
2022/03/10 04:00:55;;;;;;;19.73;12.57;;;0.80;99.90;;;;;;4993405;28;20052;-84
2022/03/10 04:03:20;;;;;;;19.40;11.67;;;0.90;99.90;;;;;;5010087;28;20471;-85
2022/03/10 04:05:46;;;;;;;20.87;12.53;;;0.90;99.90;;;;;;5009546;28;20503;-85
2022/03/10 04:08:12;;;;;;;20.70;12.63;;;0.90;99.90;;;;;;5009686;28;20060;-84
2022/03/10 04:10:39;;;;;;;20.03;12.63;;;0.80;99.90;;;;;;5010010;28;20124;-85
2022/03/10 04:13:05;;;;;;;22.57;13.20;;;0.80;99.90;;;;;;5009655;28;20046;-85
2022/03/10 04:15:32;;;;;;;20.50;12.67;;;0.70;99.90;;;;;;4993311;28;20427;-85
2022/03/10 04:17:58;;;;;;;19.30;12.17;;;0.70;99.90;;;;;;5008958;28;20042;-85
2022/03/10 04:20:24;;;;;;;21.23;12.70;;;0.70;99.90;;;;;;5009564;28;20530;-85
2022/03/10 04:22:50;;;;;;;20.93;12.43;;;0.70;99.90;;;;;;5009717;28;20504;-86
2022/03/10 04:25:16;;;;;;;20.80;12.13;;;0.70;99.90;;;;;;4992909;28;20041;-85
2022/03/10 04:27:41;;;;;;;23.90;13.13;;;0.70;99.90;;;;;;5009623;28;20108;-85
2022/03/10 04:30:07;;;;;;;19.30;12.83;;;0.70;99.90;;;;;;5009511;28;20050;-85
2022/03/10 04:32:46;;;;;;;18.90;12.70;;;0.70;99.90;;;;;;4993331;28;20488;-85
2022/03/10 04:35:18;;;;;;;18.83;12.50;;;0.70;99.90;;;;;;4992839;28;20042;-85
2022/03/10 04:37:47;;;;;;;22.20;12.43;;;0.70;99.90;;;;;;5009596;28;20153;-85
2022/03/10 04:40:13;;;;;;;23.37;12.67;;;0.70;99.90;;;;;;5009564;28;20504;-85
2022/03/10 04:42:39;;;;;;;21.37;12.63;;;0.70;99.90;;;;;;5009619;28;20056;-84
2022/03/10 04:45:06;;;;;;;22.03;12.47;;;0.60;99.90;;;;;;4993001;28;20512;-85
2022/03/10 04:47:33;;;;;;;20.40;12.60;;;0.60;99.90;;;;;;5009440;28;20058;-85
2022/03/10 04:49:59;;;;;;;19.60;12.57;;;0.60;99.90;;;;;;4993292;28;20404;-85
2022/03/10 04:52:28;;;;;;;22.70;13.07;;;0.60;99.90;;;;;;5009670;28;20360;-85
2022/03/10 04:54:54;;;;;;;21.17;11.90;;;0.60;99.90;;;;;;5009045;28;20049;-85
2022/03/10 04:57:20;;;;;;;20.37;12.50;;;0.60;99.90;;;;;;5009281;28;20041;-84
2022/03/10 04:59:45;;;;;;;20.10;12.07;;;0.60;99.90;;;;;;4992690;28;20385;-85
2022/03/10 05:02:11;;;;;;;20.43;12.30;;;0.70;99.90;;;;;;4993030;28;20053;-83
2022/03/10 05:04:37;;;;;;;21.20;13.00;;;0.70;99.90;;;;;;5009078;28;20121;-85
2022/03/10 05:07:04;;;;;;;19.10;12.17;;;0.70;99.90;;;;;;4992703;28;20107;-84
2022/03/10 05:09:29;;;;;;;20.00;13.13;;;0.60;99.90;;;;;;4993030;28;20088;-85
2022/03/10 05:11:56;;;;;;;18.77;11.93;;;0.70;99.90;;;;;;5009283;28;20033;-85
2022/03/10 05:14:21;;;;;;;20.13;12.27;;;0.60;99.90;;;;;;5008720;28;20084;-84
2022/03/10 05:16:47;;;;;;;18.50;12.43;;;0.50;99.90;;;;;;5008914;28;20069;-85
2022/03/10 05:19:13;;;;;;;19.90;12.17;;;0.40;99.90;;;;;;4993068;28;20038;-85
2022/03/10 05:21:38;;;;;;;20.30;12.27;;;0.40;99.90;;;;;;5008961;28;20033;-83
2022/03/10 05:24:05;;;;;;;18.37;11.50;;;0.40;99.90;;;;;;5008840;28;20424;-84
2022/03/10 05:26:30;;;;;;;20.07;11.93;;;0.40;99.90;;;;;;4992861;28;20102;-85
2022/03/10 05:28:56;;;;;;;18.33;12.10;;;0.50;99.90;;;;;;5008993;28;20045;-85
2022/03/10 05:31:22;;;;;;;19.73;11.33;;;0.50;99.90;;;;;;5011213;28;20042;-85
2022/03/10 05:33:47;;;;;;;18.17;11.53;;;0.50;99.90;;;;;;5012340;28;20416;-85
2022/03/10 05:36:13;;;;;;;17.27;10.87;;;0.60;99.90;;;;;;4996005;28;20042;-85
2022/03/10 05:38:38;;;;;;;19.77;11.83;;;0.60;99.90;;;;;;5012268;28;20060;-84
2022/03/10 05:41:05;;;;;;;18.53;11.27;;;0.60;99.90;;;;;;5012542;28;20056;-85
2022/03/10 05:43:31;;;;;;;18.03;11.33;;;0.60;99.90;;;;;;5012031;28;20522;-84
2022/03/10 05:45:57;;;;;;;20.37;11.77;;;0.60;99.90;;;;;;5012085;28;20046;-85
2022/03/10 05:48:22;;;;;;;18.33;11.00;;;0.60;99.90;;;;;;4996103;28;20069;-84
2022/03/10 05:50:48;;;;;;;21.87;11.37;;;0.70;99.90;;;;;;4996414;28;20143;-84
2022/03/10 05:53:14;;;;;;;21.20;11.23;;;0.70;99.90;;;;;;4995648;28;20053;-84
2022/03/10 05:55:39;;;;;;;18.53;11.20;;;0.80;99.90;;;;;;5011905;28;20463;-85
2022/03/10 05:58:05;;;;;;;16.33;10.47;;;0.90;99.90;;;;;;4995672;28;20121;-83
2022/03/10 06:00:30;;;;;;;17.20;10.87;;;0.80;99.90;;;;;;5011814;28;20037;-85
2022/03/10 06:02:56;;;;;;;18.33;11.00;;;0.90;99.90;;;;;;4995703;28;20084;-84
2022/03/10 06:05:21;;;;;;;18.03;11.00;;;0.90;99.90;;;;;;4995333;28;20392;-84
2022/03/10 06:07:47;;;;;;;19.03;11.60;;;0.90;99.90;;;;;;5012044;28;20049;-84
2022/03/10 06:10:13;;;;;;;17.23;10.53;;;1.00;99.90;;;;;;5011693;28;20120;-84
2022/03/10 06:12:38;;;;;;;18.33;11.07;;;1.00;99.90;;;;;;4995953;28;20121;-84
2022/03/10 06:15:06;;;;;;;17.87;11.03;;;1.00;99.90;;;;;;4994879;28;20038;-84
2022/03/10 06:17:32;;;;;;;17.63;11.07;;;1.00;99.90;;;;;;5011502;28;20122;-83
2022/03/10 06:19:58;;;;;;;19.30;11.57;;;1.00;99.90;;;;;;4995253;28;20080;-84
2022/03/10 06:22:26;;;;;;;18.00;10.40;;;1.00;99.90;;;;;;5004292;28;20417;-84
2022/03/10 06:24:52;;;;;;;18.07;10.73;;;1.00;99.90;;;;;;4992184;28;20081;-84
2022/03/10 06:27:19;;;;;;;19.33;10.77;;;1.00;99.90;;;;;;4992860;28;20039;-84
2022/03/10 06:29:45;;;;;;;20.07;11.20;;;1.00;99.90;;;;;;4976798;28;20494;-84
2022/03/10 06:32:14;;;;;;;18.07;11.43;;;1.10;99.90;;;;;;4991293;28;20038;-83
2022/03/10 06:34:40;;;;;;;19.07;10.50;;;1.10;99.90;;;;;;4992243;28;20038;-84
2022/03/10 06:37:06;;;;;;;17.83;11.73;;;1.20;99.90;;;;;;4992641;28;20045;-83
2022/03/10 06:39:32;;;;;;;17.77;10.97;;;1.20;99.90;;;;;;4976622;28;20038;-83
2022/03/10 06:41:58;;;;;;;17.70;11.07;;;1.20;99.90;;;;;;4992001;28;20038;-83
2022/03/10 06:44:25;;;;;;;19.53;11.17;;;1.30;99.90;;;;;;4991610;28;20353;-84
2022/03/10 06:46:51;;;;;;;20.43;12.30;;;1.30;99.90;;;;;;4991420;28;20362;-83
2022/03/10 06:49:17;;;;;;;19.87;11.43;;;1.40;99.90;;;;;;4991816;28;20125;-82
2022/03/10 06:51:42;;;;;;;18.93;11.23;;;1.50;99.90;;;;;;4992305;28;20473;-83
2022/03/10 06:54:08;;;;;;;18.40;10.67;;;1.50;99.90;;;;;;4991478;28;20049;-83
2022/03/10 06:56:34;;;;;;;18.73;11.50;;;1.60;99.90;;;;;;4991769;28;20065;-83
2022/03/10 06:59:00;;;;;;;17.87;10.67;;;1.70;99.90;;;;;;4975030;28;20034;-84
2022/03/10 07:01:25;;;;;;;19.50;11.90;;;1.80;99.90;;;;;;4974383;28;20085;-83
2022/03/10 07:03:51;;;;;;;17.77;10.97;;;1.90;99.90;;;;;;4990418;28;20070;-84
2022/03/10 07:06:17;;;;;;;17.57;10.37;;;1.90;99.90;;;;;;4991909;28;20578;-84
2022/03/10 07:08:43;;;;;;;16.47;11.07;;;2.00;99.90;;;;;;4975928;28;20151;-84
2022/03/10 07:11:08;;;;;;;16.90;11.53;;;2.10;99.90;;;;;;4975296;28;20046;-83
2022/03/10 07:13:36;;;;;;;17.97;11.47;;;2.20;99.90;;;;;;4991096;28;20057;-83
2022/03/10 07:16:02;;;;;;;19.00;11.07;;;2.20;99.90;;;;;;4990262;28;20053;-83
2022/03/10 07:18:27;;;;;;;19.07;11.53;;;2.30;99.90;;;;;;4993159;28;20460;-84
2022/03/10 07:20:53;;;;;;;19.13;11.50;;;2.40;99.90;;;;;;4991770;28;20050;-84
2022/03/10 07:23:18;;;;;;;17.60;10.87;;;2.50;99.90;;;;;;4991640;28;20038;-84
2022/03/10 07:25:44;;;;;;;22.23;11.73;;;2.60;99.90;;;;;;4975206;28;20049;-83
2022/03/10 07:28:10;;;;;;;18.40;11.47;;;2.80;99.90;;;;;;4991500;28;20050;-84
2022/03/10 07:30:36;;;;;;;17.63;11.50;;;2.90;99.90;;;;;;4975362;28;20038;-84
2022/03/10 07:33:01;;;;;;;16.83;10.87;;;3.00;99.90;;;;;;4991236;28;20492;-84
2022/03/10 07:35:27;;;;;;;17.20;11.17;;;3.20;99.90;;;;;;4974414;28;20038;-84
2022/03/10 07:37:55;;;;;;;17.20;11.10;;;3.30;99.90;;;;;;4990613;28;20100;-83
2022/03/10 07:40:22;;;;;;;18.63;11.00;;;3.40;99.90;;;;;;4991260;28;20042;-83
2022/03/10 07:42:47;;;;;;;16.90;11.53;;;3.50;99.90;;;;;;4991147;28;20125;-83
2022/03/10 07:45:13;;;;;;;18.43;11.23;;;3.60;99.90;;;;;;4975232;28;20559;-83
2022/03/10 07:47:39;;;;;;;18.08;11.35;;;3.70;99.90;;;;;;4991355;28;20397;-83
2022/03/10 07:50:06;;;;;;;18.77;11.50;;;3.90;99.90;;;;;;4991192;28;20049;-82
2022/03/10 07:52:32;;;;;;;17.75;11.40;;;3.90;99.90;;;;;;4990621;28;20046;-83
2022/03/10 07:54:57;;;;;;;20.45;11.13;;;4.10;99.90;;;;;;4976748;28;20038;-83
2022/03/10 07:57:23;;;;;;;18.48;11.85;;;4.20;99.90;;;;;;4984973;28;20045;-82
2022/03/10 07:59:48;;;;;;;18.70;12.07;;;4.30;99.90;;;;;;4999221;28;20035;-83
2022/03/10 08:02:14;;;;;;;19.63;11.20;;;4.40;99.90;;;;;;4995143;28;20042;-83
2022/03/10 08:04:39;;;;;;;19.52;11.95;;;4.50;99.90;;;;;;4974566;28;20061;-82
2022/03/10 08:07:05;;;;;;;21.13;11.35;;;4.60;99.90;;;;;;4990985;28;20093;-82
2022/03/10 08:09:31;;;;;;;18.13;12.00;;;4.70;99.90;;;;;;4991380;28;20046;-83
2022/03/10 08:11:56;;;;;;;20.25;12.57;;;4.80;99.90;;;;;;4990897;28;20038;-83
2022/03/10 08:14:22;;;;;;;20.80;11.75;;;5.00;99.90;;;;;;4990713;28;20444;-82
2022/03/10 08:16:47;;;;;;;18.75;11.73;;;5.20;99.90;;;;;;4990873;28;20504;-82
2022/03/10 08:19:13;;;;;;;18.10;11.35;;;5.20;99.90;;;;;;4991183;28;20042;-82
2022/03/10 08:21:38;;;;;;;20.02;12.10;;;5.40;99.90;;;;;;4990896;28;20038;-82
2022/03/10 08:24:05;;;;;;;18.92;11.68;;;5.50;99.90;;;;;;4989122;28;20046;-83
2022/03/10 08:26:31;;;;;;;17.55;11.55;;;5.60;99.90;;;;;;4990320;28;20100;-82
2022/03/10 08:28:56;;;;;;;19.73;11.68;;;5.80;99.90;;;;;;4990893;28;20042;-82
2022/03/10 08:31:22;;;;;;;18.17;12.50;;;5.90;99.90;;;;;;4991003;28;20042;-81
2022/03/10 08:33:49;;;;;;;17.67;11.57;;;6.00;99.90;;;;;;4976459;28;20042;-83
2022/03/10 08:36:15;;;;;;;17.52;11.20;;;6.10;99.90;;;;;;4990337;28;20054;-82
2022/03/10 08:38:41;;;;;;;20.70;12.77;;;6.30;99.90;;;;;;4990969;28;20041;-82
2022/03/10 08:41:06;;;;;;;20.88;12.35;;;6.40;99.90;;;;;;4974868;28;20034;-82
2022/03/10 08:43:33;;;;;;;16.73;11.52;;;6.60;99.90;;;;;;4990512;28;20477;-83
2022/03/10 08:46:02;;;;;;;20.65;12.25;;;6.70;99.90;;;;;;4974317;28;20051;-83
2022/03/10 08:48:28;;;;;;;21.25;12.05;;;6.80;99.90;;;;;;4974540;28;20089;-83
2022/03/10 08:50:53;;;;;;;19.10;11.60;;;6.90;99.90;;;;;;4990885;28;20512;-83
2022/03/10 08:53:19;;;;;;;21.08;11.95;;;7.00;99.90;;;;;;4990467;28;20100;-83
2022/03/10 08:55:45;;;;;;;17.85;11.82;;;7.10;99.90;;;;;;4974162;28;20428;-83
2022/03/10 08:58:10;;;;;;;18.67;12.60;;;7.20;99.90;;;;;;4990451;28;20404;-83
2022/03/10 09:00:37;;;;;;;18.17;11.95;;;7.30;99.90;;;;;;4990507;28;20404;-82
2022/03/10 09:03:03;;;;;;;18.90;12.68;;;7.40;99.90;;;;;;4990485;28;20042;-82
2022/03/10 09:05:28;;;;;;;19.35;12.25;;;7.50;99.90;;;;;;4992581;28;20393;-82
2022/03/10 09:07:54;;;;;;;19.75;12.18;;;7.60;99.90;;;;;;4994074;28;20495;-82
2022/03/10 09:10:19;;;;;;;20.55;12.38;;;7.70;99.90;;;;;;4994254;28;20047;-82
2022/03/10 09:12:45;;;;;;;18.48;11.95;;;7.80;99.90;;;;;;4994467;28;20081;-82
2022/03/10 09:15:11;;;;;;;17.27;11.75;;;8.00;99.90;;;;;;4994005;28;20081;-83
2022/03/10 09:17:37;;;;;;;19.52;12.15;;;8.10;99.90;;;;;;4994050;28;20034;-82
2022/03/10 09:20:05;;;;;;;19.48;12.82;;;8.20;99.90;;;;;;4994339;28;20042;-82
2022/03/10 09:22:31;;;;;;;20.10;11.95;;;8.30;99.90;;;;;;4994210;28;20088;-82
2022/03/10 09:24:56;;;;;;;18.95;12.40;;;8.40;99.90;;;;;;4993533;28;20042;-83
2022/03/10 09:27:22;;;;;;;17.27;12.18;;;8.50;99.90;;;;;;4992797;28;20045;-82
2022/03/10 09:29:48;;;;;;;16.90;12.13;;;8.60;99.90;;;;;;4977003;28;20039;-82
2022/03/10 09:32:13;;;;;;;24.83;12.57;;;8.70;99.90;;;;;;4993781;28;20064;-83
2022/03/10 09:34:39;;;;;;;21.13;13.05;;;8.80;99.90;;;;;;4993557;28;20358;-83
2022/03/10 09:37:06;;;;;;;18.33;12.30;;;8.90;99.90;;;;;;4977200;28;20448;-83
2022/03/10 09:39:32;;;;;;;19.80;12.23;;;9.00;99.90;;;;;;4993767;28;20464;-83
2022/03/10 09:41:59;;;;;;;19.20;12.85;;;9.20;99.90;;;;;;4977255;28;20038;-83
2022/03/10 09:44:27;;;;;;;17.80;12.90;;;9.20;99.90;;;;;;4993461;28;20039;-83
2022/03/10 09:46:53;;;;;;;20.40;13.02;;;9.30;99.90;;;;;;4993387;28;20042;-83
2022/03/10 09:49:20;;;;;;;19.92;12.60;;;9.50;99.90;;;;;;4993175;28;20046;-83
2022/03/10 09:51:48;;;;;;;21.48;13.02;;;9.60;99.90;;;;;;4993409;28;20500;-83
2022/03/10 09:54:14;;;;;;;19.05;12.88;;;9.80;99.90;;;;;;4993021;28;20038;-83
2022/03/10 09:56:43;;;;;;;19.63;12.77;;;9.80;99.90;;;;;;4993128;28;20034;-83
2022/03/10 09:59:10;;;;;;;18.20;12.57;;;9.90;99.90;;;;;;4993570;28;20440;-84
2022/03/10 10:01:36;;;;;;;20.13;13.32;;;9.90;99.90;;;;;;4993105;28;20074;-83
2022/03/10 10:04:01;;;;;;;18.92;13.50;;;10.00;99.90;;;;;;4992844;28;20078;-83
2022/03/10 10:06:27;;;;;;;18.33;13.30;;;10.20;99.90;;;;;;4993024;28;20034;-84
2022/03/10 10:08:56;;;;;;;22.85;13.05;;;10.30;99.90;;;;;;4976777;28;20112;-84
2022/03/10 10:11:35;;;;;;;18.13;12.52;;;10.40;99.90;;;;;;4993021;28;20491;-83
2022/03/10 10:14:01;;;;;;;18.35;12.60;;;10.60;99.30;;;;;;4992706;28;20049;-84
2022/03/10 10:16:27;;;;;;;18.88;13.25;;;10.60;99.30;;;;;;4991852;28;20125;-84
2022/03/10 10:18:58;;;;;;;22.77;13.75;;;10.80;97.90;;;;;;4993116;28;20535;-83
2022/03/10 10:21:25;;;;;;;19.67;13.88;;;10.90;96.70;;;;;;4992859;28;20046;-84
2022/03/10 10:23:53;;;;;;;19.95;13.50;;;11.00;98.20;;;;;;4992509;28;20042;-84
2022/03/10 10:26:25;;;;;;;20.00;13.45;;;11.00;97.60;;;;;;4992689;28;20583;-83
2022/03/10 10:28:52;;;;;;;19.63;12.93;;;11.10;97.90;;;;;;4992856;28;20054;-83
2022/03/10 10:31:20;;;;;;;18.90;12.98;;;11.10;97.00;;;;;;4992593;28;20089;-83
2022/03/10 10:34:06;;;;;;;20.20;12.93;;;11.20;95.90;;;;;;4992282;28;20034;-84
2022/03/10 10:36:33;;;;;;;19.48;13.27;;;11.20;93.50;;;;;;4992441;28;20046;-84
2022/03/10 10:39:12;;;;;;;21.60;13.43;;;11.30;94.10;;;;;;4992458;28;20042;-84
2022/03/10 10:41:41;;;;;;;22.05;12.50;;;11.40;94.20;;;;;;4992345;28;20522;-85
2022/03/10 10:44:10;;;;;;;21.92;13.68;;;11.50;92.70;;;;;;4975896;28;20038;-84
2022/03/10 10:46:41;;;;;;;19.30;13.15;;;11.60;93.90;;;;;;4992252;28;20046;-84
2022/03/10 10:49:14;;;;;;;21.50;14.07;;;11.80;94.50;;;;;;4976222;28;20034;-84
2022/03/10 10:51:45;;;;;;;19.27;13.73;;;11.90;93.80;;;;;;4992223;28;20068;-84
2022/03/10 10:54:24;;;;;;;20.92;13.75;;;12.00;94.10;;;;;;4975894;28;20289;-84
2022/03/10 10:56:51;;;;;;;21.95;13.55;;;12.10;93.70;;;;;;4975840;28;20121;-84
2022/03/10 10:59:38;;;;;;;18.38;12.65;;;12.20;93.80;;;;;;4992195;28;20046;-84
2022/03/10 11:02:18;;;;;;;23.65;14.10;;;12.30;92.30;;;;;;4976241;28;20538;-84
2022/03/10 11:04:51;;;;;;;21.90;13.55;;;12.40;93.00;;;;;;4992034;28;20408;-85
2022/03/10 11:07:19;;;;;;;18.52;12.88;;;12.50;92.50;;;;;;4975636;28;20116;-84
2022/03/10 11:09:46;;;;;;;20.92;13.80;;;12.70;93.50;;;;;;4993993;28;20547;-84
2022/03/10 11:12:14;;;;;;;21.20;13.90;;;12.70;91.80;;;;;;4992673;28;20496;-85
2022/03/10 11:14:41;;;;;;;20.15;13.85;;;12.80;91.70;;;;;;4975404;28;20057;-84
2022/03/10 11:17:07;;;;;;;18.20;13.18;;;12.90;91.60;;;;;;4991592;28;20046;-85
2022/03/10 11:19:41;;;;;;;20.83;14.85;;;13.00;92.00;;;;;;4991796;28;20145;-85
2022/03/10 11:22:25;;;;;;;22.15;14.30;;;13.10;91.90;;;;;;4975780;28;20496;-85
2022/03/10 11:25:20;;;;;;;21.00;13.95;;;13.20;92.10;;;;;;4991697;28;20042;-85
2022/03/10 11:28:08;;;;;;;23.73;14.05;;;13.30;91.80;;;;;;4975332;28;20050;-85
2022/03/10 11:30:34;;;;;;;23.65;14.77;;;13.40;85.60;;;;;;4991689;28;20038;-85
2022/03/10 11:33:11;;;;;;;19.00;13.60;;;13.40;90.20;;;;;;4991469;28;20520;-85
2022/03/10 11:35:39;;;;;;;20.85;14.65;;;13.50;86.70;;;;;;4974866;28;20129;-85
2022/03/10 11:38:05;;;;;;;22.58;14.85;;;13.60;89.70;;;;;;4991316;28;20038;-85
2022/03/10 11:40:52;;;;;;;20.13;14.63;;;13.80;89.50;;;;;;4991414;28;20045;-85
2022/03/10 11:43:36;;;;;;;20.38;14.02;;;13.80;85.30;;;;;;4991682;28;20038;-85
2022/03/10 11:46:17;;;;;;;21.85;13.93;;;13.80;83.50;;;;;;4991005;28;20038;-85
2022/03/10 11:48:58;;;;;;;21.17;14.43;;;14.00;85.70;;;;;;4991220;28;20060;-85
2022/03/10 11:51:56;;;;;;;23.40;13.93;;;13.90;84.20;;;;;;4990737;28;20512;-85
2022/03/10 11:54:28;;;;;;;22.95;14.55;;;14.00;83.60;;;;;;4989790;28;20050;-85
2022/03/10 11:56:57;;;;;;;23.35;14.93;;;14.00;81.10;;;;;;4990942;28;20050;-84
2022/03/10 11:59:46;;;;;;;22.13;15.23;;;14.20;83.10;;;;;;4991485;28;20050;-85
2022/03/10 12:02:41;;;;;;;19.63;13.77;;;14.30;82.20;;;;;;4990500;28;20042;-85
2022/03/10 12:05:08;;;;;;;20.67;14.48;;;14.60;81.80;;;;;;4990847;28;20034;-85
2022/03/10 12:07:34;;;;;;;23.63;14.98;;;14.60;80.60;;;;;;4990868;28;20038;-85
2022/03/10 12:10:08;;;;;;;21.02;14.60;;;14.60;80.20;;;;;;4974818;28;20038;-85
2022/03/10 12:12:42;;;;;;;19.92;14.23;;;14.80;76.00;;;;;;4974874;28;20094;-85
2022/03/10 12:15:23;;;;;;;20.35;14.10;;;14.90;78.80;;;;;;4990670;28;20063;-85
2022/03/10 12:17:50;;;;;;;21.48;14.73;;;15.00;74.30;;;;;;4990253;28;20038;-85
2022/03/10 12:20:41;;;;;;;22.52;14.60;;;15.10;78.90;;;;;;4974522;28;20137;-86
2022/03/10 12:23:07;;;;;;;19.75;14.52;;;15.20;75.10;;;;;;4990915;28;20436;-86
2022/03/10 12:25:43;;;;;;;22.27;14.50;;;15.30;77.90;;;;;;4990658;28;20125;-85
2022/03/10 12:28:11;;;;;;;22.40;14.60;;;15.50;78.40;;;;;;4990711;28;20053;-85
2022/03/10 12:30:41;;;;;;;24.42;15.05;;;15.60;77.10;;;;;;4974774;28;20099;-86
2022/03/10 12:33:07;;;;;;;21.67;14.43;;;15.70;76.40;;;;;;4990884;28;20081;-85
2022/03/10 12:35:38;;;;;;;21.42;15.18;;;15.80;76.80;;;;;;4990428;28;20047;-86
2022/03/10 12:38:05;;;;;;;22.27;14.18;;;16.00;76.20;;;;;;4973627;28;20826;-85
2022/03/10 12:40:33;;;;;;;22.65;14.43;;;16.10;76.30;;;;;;4992864;28;20042;-85
2022/03/10 12:43:00;;;;;;;20.85;14.75;;;16.30;75.80;;;;;;4978481;28;20159;-85